Terminal Aerodrome Forecast
Issued by NWS

Home | Current Version | Previous Version | Text Only | Print | Product List | Glossary On
Versions: 1 2 3 4 5 6 7 8 9 10 11 12 13 14 15
000
FTUS46 KSGX 222300
TAFTRM
TAF
KTRM 222329Z 2300/2324 VRB06KT P6SM FEW150
     FM230500 33008KT P6SM SKC
     FM230900 VRB05KT P6SM SKC
     FM232000 14007KT P6SM SKC=

USA.gov is the U.S. government's official web portal to all federal, state and local government web resources and services.